AUA74H LYBE-LOWW
Flight info
| Callsign | AUA74H |
|---|---|
| Flight time | 0h 51m |
| Altitude | 36000 |
| Route | TISAK DCT PARAK DCT BALUX DCT TORNO DCT NATEX NATEX2W |
| Aircraft | A320/M-SDE3FGHIRWY/LB1 |
Departure
| Time | 2026-05-05 18:36 |
|---|---|
| Airport | Belgrade Nikola Tesla Airport (LYBE) |
Arrival
| Time | 2026-05-05 19:27 |
|---|---|
| Airport | Vienna International Airport (LOWW) |
| Time | Latitude | Longitude | Altitude | Speed | Heading |
|---|---|---|---|---|---|
| 2026-05-05 18:28 | 44.82131 | 20.29137 | 307 ft | 0 kts | 212° |
| 2026-05-05 18:29 | 44.82125 | 20.29132 | 307 ft | 2 kts | 212° |
| 2026-05-05 18:29 | 44.82123 | 20.29130 | 307 ft | 0 kts | 211° |
| 2026-05-05 18:29 | 44.82123 | 20.29131 | 307 ft | 1 kts | 211° |
| 2026-05-05 18:30 | 44.82134 | 20.29140 | 308 ft | 2 kts | 211° |
| 2026-05-05 18:30 | 44.82149 | 20.29153 | 308 ft | 3 kts | 212° |
| 2026-05-05 18:30 | 44.82166 | 20.29168 | 309 ft | 3 kts | 214° |
| 2026-05-05 18:30 | 44.82184 | 20.29186 | 308 ft | 3 kts | 221° |
| 2026-05-05 18:31 | 44.82193 | 20.29199 | 308 ft | 2 kts | 246° |
| 2026-05-05 18:31 | 44.82196 | 20.29214 | 309 ft | 2 kts | 288° |
| 2026-05-05 18:31 | 44.82192 | 20.29228 | 308 ft | 2 kts | 302° |
| 2026-05-05 18:31 | 44.82189 | 20.29236 | 309 ft | 0 kts | 303° |
| 2026-05-05 18:33 | 44.82195 | 20.29221 | 307 ft | 4 kts | 303° |
| 2026-05-05 18:33 | 44.82212 | 20.29184 | 307 ft | 5 kts | 303° |
| 2026-05-05 18:33 | 44.82230 | 20.29146 | 307 ft | 5 kts | 306° |
| 2026-05-05 18:34 | 44.82257 | 20.29129 | 307 ft | 4 kts | 0° |
| 2026-05-05 18:34 | 44.82280 | 20.29141 | 307 ft | 4 kts | 27° |
| 2026-05-05 18:34 | 44.82330 | 20.29183 | 311 ft | 9 kts | 31° |
| 2026-05-05 18:34 | 44.82379 | 20.29228 | 309 ft | 8 kts | 45° |
| 2026-05-05 18:35 | 44.82369 | 20.29283 | 309 ft | 0 kts | 122° |
| 2026-05-05 18:35 | 44.82279 | 20.29480 | 309 ft | 70 kts | 122° |
| 2026-05-05 18:35 | 44.81841 | 20.30466 | 310 ft | 162 kts | 122° |
| 2026-05-05 18:36 | 44.81190 | 20.31940 | 1062 ft | 179 kts | 121° |
| 2026-05-05 18:36 | 44.80550 | 20.33446 | 2203 ft | 185 kts | 122° |
| 2026-05-05 18:36 | 44.79896 | 20.35061 | 3395 ft | 188 kts | 121° |
| 2026-05-05 18:36 | 44.79258 | 20.36658 | 4261 ft | 192 kts | 122° |
| 2026-05-05 18:37 | 44.78834 | 20.38526 | 4816 ft | 218 kts | 91° |
| 2026-05-05 18:37 | 44.79376 | 20.40633 | 5326 ft | 248 kts | 50° |
| 2026-05-05 18:37 | 44.80906 | 20.42009 | 5933 ft | 274 kts | 12° |
| 2026-05-05 18:37 | 44.82813 | 20.42093 | 6836 ft | 282 kts | 350° |
| 2026-05-05 18:38 | 44.84754 | 20.41588 | 7951 ft | 285 kts | 346° |
| 2026-05-05 18:38 | 44.86706 | 20.40982 | 9103 ft | 289 kts | 344° |
| 2026-05-05 18:38 | 44.88676 | 20.40332 | 10195 ft | 293 kts | 344° |
| 2026-05-05 18:38 | 44.90676 | 20.39657 | 11187 ft | 299 kts | 345° |
| 2026-05-05 18:39 | 44.92721 | 20.38967 | 12158 ft | 305 kts | 345° |
| 2026-05-05 18:39 | 44.94811 | 20.38273 | 13127 ft | 312 kts | 346° |
| 2026-05-05 18:39 | 44.96946 | 20.37573 | 14037 ft | 318 kts | 346° |
| 2026-05-05 18:39 | 44.99116 | 20.36863 | 14925 ft | 322 kts | 346° |
| 2026-05-05 18:40 | 45.01313 | 20.36147 | 15843 ft | 325 kts | 346° |
| 2026-05-05 18:40 | 45.03532 | 20.35424 | 16766 ft | 328 kts | 346° |
| 2026-05-05 18:40 | 45.05767 | 20.34695 | 17693 ft | 331 kts | 346° |
| 2026-05-05 18:40 | 45.08024 | 20.33960 | 18560 ft | 334 kts | 346° |
| 2026-05-05 18:41 | 45.10296 | 20.33221 | 19356 ft | 337 kts | 346° |
| 2026-05-05 18:41 | 45.12592 | 20.32470 | 20159 ft | 340 kts | 345° |
| 2026-05-05 18:41 | 45.14906 | 20.31711 | 20965 ft | 343 kts | 345° |
| 2026-05-05 18:41 | 45.17239 | 20.30941 | 21752 ft | 346 kts | 345° |
| 2026-05-05 18:42 | 45.19589 | 20.30168 | 22538 ft | 349 kts | 345° |
| 2026-05-05 18:42 | 45.21965 | 20.29389 | 23318 ft | 352 kts | 345° |
| 2026-05-05 18:42 | 45.24361 | 20.28604 | 23989 ft | 355 kts | 345° |
| 2026-05-05 18:42 | 45.26778 | 20.27814 | 24633 ft | 358 kts | 345° |
| 2026-05-05 18:43 | 45.29184 | 20.27025 | 25280 ft | 360 kts | 345° |
| 2026-05-05 18:43 | 45.31638 | 20.26217 | 25932 ft | 363 kts | 345° |
| 2026-05-05 18:43 | 45.34106 | 20.25401 | 26589 ft | 366 kts | 345° |
| 2026-05-05 18:43 | 45.36595 | 20.24578 | 27239 ft | 369 kts | 344° |
| 2026-05-05 18:44 | 45.39103 | 20.23748 | 27896 ft | 371 kts | 344° |
| 2026-05-05 18:44 | 45.41627 | 20.22907 | 28552 ft | 374 kts | 342° |
| 2026-05-05 18:44 | 45.44109 | 20.21710 | 28937 ft | 382 kts | 336° |
| 2026-05-05 18:44 | 45.46640 | 20.20325 | 29079 ft | 397 kts | 336° |
| 2026-05-05 18:45 | 45.51027 | 20.17878 | 29318 ft | 416 kts | 336° |
| 2026-05-05 18:45 | 45.53793 | 20.16333 | 29463 ft | 427 kts | 336° |
| 2026-05-05 18:45 | 45.56555 | 20.14790 | 29603 ft | 436 kts | 336° |
| 2026-05-05 18:46 | 45.59406 | 20.13204 | 29752 ft | 444 kts | 336° |
| 2026-05-05 18:46 | 45.62294 | 20.11605 | 30006 ft | 447 kts | 336° |
| 2026-05-05 18:46 | 45.65197 | 20.09997 | 30335 ft | 447 kts | 336° |
| 2026-05-05 18:46 | 45.68097 | 20.08390 | 30687 ft | 447 kts | 336° |
| 2026-05-05 18:47 | 45.70998 | 20.06780 | 31039 ft | 447 kts | 336° |
| 2026-05-05 18:47 | 45.73892 | 20.05167 | 31401 ft | 446 kts | 336° |
| 2026-05-05 18:47 | 45.76787 | 20.03550 | 31770 ft | 446 kts | 336° |
| 2026-05-05 18:47 | 45.79673 | 20.01937 | 32161 ft | 445 kts | 336° |
| 2026-05-05 18:48 | 45.82555 | 20.00329 | 32545 ft | 444 kts | 336° |
| 2026-05-05 18:48 | 45.85434 | 19.98721 | 32928 ft | 443 kts | 336° |
| 2026-05-05 18:48 | 45.88305 | 19.97114 | 33314 ft | 443 kts | 336° |
| 2026-05-05 18:48 | 45.91169 | 19.95508 | 33709 ft | 442 kts | 336° |
| 2026-05-05 18:49 | 45.94036 | 19.93896 | 33915 ft | 442 kts | 336° |
| 2026-05-05 18:49 | 45.96903 | 19.92282 | 33947 ft | 442 kts | 336° |
| 2026-05-05 18:49 | 46.02623 | 19.89060 | 33935 ft | 442 kts | 336° |
| 2026-05-05 18:50 | 46.08317 | 19.85840 | 33932 ft | 442 kts | 336° |
| 2026-05-05 18:50 | 46.14038 | 19.82607 | 33941 ft | 442 kts | 336° |
| 2026-05-05 18:51 | 46.19757 | 19.79364 | 33938 ft | 442 kts | 336° |
| 2026-05-05 18:51 | 46.25474 | 19.76108 | 33940 ft | 442 kts | 336° |
| 2026-05-05 18:52 | 46.31193 | 19.72849 | 33941 ft | 441 kts | 336° |
| 2026-05-05 18:52 | 46.36908 | 19.69587 | 33941 ft | 441 kts | 336° |
| 2026-05-05 18:53 | 46.42612 | 19.66319 | 33955 ft | 441 kts | 336° |
| 2026-05-05 18:53 | 46.48315 | 19.63052 | 33945 ft | 441 kts | 336° |
| 2026-05-05 18:54 | 46.54023 | 19.59771 | 33943 ft | 441 kts | 336° |
| 2026-05-05 18:54 | 46.59695 | 19.56495 | 33941 ft | 441 kts | 336° |
| 2026-05-05 18:55 | 46.65399 | 19.53201 | 33936 ft | 441 kts | 336° |
| 2026-05-05 18:55 | 46.71111 | 19.49906 | 33929 ft | 441 kts | 336° |
| 2026-05-05 18:56 | 46.76823 | 19.46593 | 33925 ft | 442 kts | 336° |
| 2026-05-05 18:56 | 46.82537 | 19.43262 | 33927 ft | 442 kts | 336° |
| 2026-05-05 18:57 | 46.88250 | 19.39939 | 33928 ft | 442 kts | 336° |
| 2026-05-05 18:57 | 46.93964 | 19.36603 | 33932 ft | 442 kts | 336° |
| 2026-05-05 18:58 | 46.99678 | 19.33260 | 33932 ft | 442 kts | 336° |
| 2026-05-05 18:58 | 47.05395 | 19.29907 | 33930 ft | 443 kts | 336° |
| 2026-05-05 18:59 | 47.11112 | 19.26539 | 33930 ft | 443 kts | 336° |
| 2026-05-05 18:59 | 47.16793 | 19.23190 | 33922 ft | 443 kts | 336° |
| 2026-05-05 19:00 | 47.22516 | 19.19800 | 33919 ft | 443 kts | 336° |
| 2026-05-05 19:00 | 47.27863 | 19.15460 | 33922 ft | 438 kts | 315° |
| 2026-05-05 19:01 | 47.29801 | 19.12026 | 33917 ft | 436 kts | 301° |
| 2026-05-05 19:01 | 47.31325 | 19.08173 | 33916 ft | 436 kts | 299° |
| 2026-05-05 19:01 | 47.34325 | 19.00412 | 33914 ft | 436 kts | 298° |
| 2026-05-05 19:02 | 47.37322 | 18.92611 | 33910 ft | 437 kts | 298° |
| 2026-05-05 19:02 | 47.40317 | 18.84806 | 33918 ft | 437 kts | 298° |
| 2026-05-05 19:03 | 47.43308 | 18.77003 | 33929 ft | 437 kts | 298° |
| 2026-05-05 19:03 | 47.46304 | 18.69179 | 33927 ft | 437 kts | 298° |
| 2026-05-05 19:04 | 47.49291 | 18.61350 | 33917 ft | 438 kts | 298° |
| 2026-05-05 19:04 | 47.52271 | 18.53496 | 33914 ft | 438 kts | 298° |
| 2026-05-05 19:05 | 47.54761 | 18.45366 | 33913 ft | 436 kts | 287° |
| 2026-05-05 19:05 | 47.56584 | 18.36796 | 33569 ft | 434 kts | 287° |
| 2026-05-05 19:06 | 47.57489 | 18.32531 | 32348 ft | 436 kts | 286° |
| 2026-05-05 19:06 | 47.58402 | 18.28237 | 31147 ft | 438 kts | 286° |
| 2026-05-05 19:06 | 47.59318 | 18.23925 | 29983 ft | 439 kts | 286° |
| 2026-05-05 19:06 | 47.60228 | 18.19633 | 28685 ft | 431 kts | 286° |
| 2026-05-05 19:07 | 47.61114 | 18.15454 | 27472 ft | 423 kts | 286° |
| 2026-05-05 19:07 | 47.62004 | 18.11270 | 26340 ft | 427 kts | 287° |
| 2026-05-05 19:07 | 47.62993 | 18.07117 | 25953 ft | 427 kts | 289° |
| 2026-05-05 19:07 | 47.64080 | 18.03006 | 25867 ft | 430 kts | 290° |
| 2026-05-05 19:08 | 47.65228 | 17.98902 | 25769 ft | 430 kts | 291° |
| 2026-05-05 19:08 | 47.66392 | 17.94826 | 25680 ft | 429 kts | 291° |
| 2026-05-05 19:08 | 47.67550 | 17.90745 | 25582 ft | 428 kts | 290° |
| 2026-05-05 19:08 | 47.68671 | 17.86715 | 25497 ft | 428 kts | 290° |
| 2026-05-05 19:09 | 47.69782 | 17.82627 | 25411 ft | 427 kts | 290° |
| 2026-05-05 19:09 | 47.70876 | 17.78524 | 25315 ft | 427 kts | 289° |
| 2026-05-05 19:09 | 47.71957 | 17.74424 | 25225 ft | 426 kts | 289° |
| 2026-05-05 19:09 | 47.73036 | 17.70320 | 25132 ft | 426 kts | 289° |
| 2026-05-05 19:10 | 47.74118 | 17.66229 | 25035 ft | 425 kts | 289° |
| 2026-05-05 19:10 | 47.75208 | 17.62146 | 24945 ft | 425 kts | 289° |
| 2026-05-05 19:10 | 47.76328 | 17.57981 | 24848 ft | 442 kts | 290° |
| 2026-05-05 19:10 | 47.77481 | 17.53700 | 24747 ft | 448 kts | 289° |
| 2026-05-05 19:11 | 47.78641 | 17.49390 | 24646 ft | 450 kts | 290° |
| 2026-05-05 19:11 | 47.79914 | 17.45135 | 24541 ft | 452 kts | 298° |
| 2026-05-05 19:11 | 47.81626 | 17.41206 | 24375 ft | 453 kts | 301° |
| 2026-05-05 19:11 | 47.83378 | 17.37309 | 24122 ft | 452 kts | 301° |
| 2026-05-05 19:12 | 47.85131 | 17.33427 | 23884 ft | 451 kts | 302° |
| 2026-05-05 19:12 | 47.86881 | 17.29557 | 23655 ft | 450 kts | 301° |
| 2026-05-05 19:12 | 47.88609 | 17.25734 | 23421 ft | 449 kts | 301° |
| 2026-05-05 19:12 | 47.90309 | 17.21955 | 23162 ft | 447 kts | 301° |
| 2026-05-05 19:13 | 47.92066 | 17.18031 | 22883 ft | 446 kts | 301° |
| 2026-05-05 19:13 | 47.93782 | 17.14186 | 22620 ft | 445 kts | 301° |
| 2026-05-05 19:13 | 47.95488 | 17.10355 | 22345 ft | 443 kts | 301° |
| 2026-05-05 19:13 | 47.97191 | 17.06530 | 22078 ft | 442 kts | 301° |
| 2026-05-05 19:14 | 47.98890 | 17.02712 | 21812 ft | 440 kts | 301° |
| 2026-05-05 19:14 | 48.00579 | 16.98912 | 21551 ft | 439 kts | 301° |
| 2026-05-05 19:14 | 48.02260 | 16.95123 | 21270 ft | 437 kts | 301° |
| 2026-05-05 19:14 | 48.03933 | 16.91354 | 20381 ft | 433 kts | 301° |
| 2026-05-05 19:15 | 48.05589 | 16.87619 | 19527 ft | 428 kts | 301° |
| 2026-05-05 19:15 | 48.07224 | 16.83926 | 18724 ft | 424 kts | 301° |
| 2026-05-05 19:15 | 48.08842 | 16.80268 | 17939 ft | 420 kts | 301° |
| 2026-05-05 19:15 | 48.10628 | 16.76879 | 16805 ft | 410 kts | 311° |
| 2026-05-05 19:16 | 48.12758 | 16.74074 | 15410 ft | 407 kts | 322° |
| 2026-05-05 19:16 | 48.15162 | 16.71910 | 14097 ft | 401 kts | 330° |
| 2026-05-05 19:16 | 48.17633 | 16.70037 | 12699 ft | 394 kts | 330° |
| 2026-05-05 19:16 | 48.20056 | 16.68179 | 11283 ft | 387 kts | 330° |
| 2026-05-05 19:17 | 48.22471 | 16.66480 | 9946 ft | 382 kts | 337° |
| 2026-05-05 19:17 | 48.24934 | 16.65356 | 9319 ft | 356 kts | 343° |
| 2026-05-05 19:17 | 48.27217 | 16.64398 | 9012 ft | 326 kts | 343° |
| 2026-05-05 19:17 | 48.29303 | 16.63515 | 8856 ft | 297 kts | 342° |
| 2026-05-05 19:18 | 48.31189 | 16.62713 | 8608 ft | 277 kts | 342° |
| 2026-05-05 19:18 | 48.33015 | 16.61934 | 8071 ft | 270 kts | 342° |
| 2026-05-05 19:18 | 48.34810 | 16.61160 | 7457 ft | 266 kts | 341° |
| 2026-05-05 19:18 | 48.36580 | 16.60379 | 6845 ft | 265 kts | 341° |
| 2026-05-05 19:19 | 48.38334 | 16.59594 | 6266 ft | 261 kts | 341° |
| 2026-05-05 19:19 | 48.40061 | 16.58811 | 5640 ft | 258 kts | 340° |
| 2026-05-05 19:19 | 48.41602 | 16.57569 | 5123 ft | 246 kts | 312° |
| 2026-05-05 19:19 | 48.42436 | 16.55399 | 4996 ft | 241 kts | 280° |
| 2026-05-05 19:20 | 48.42414 | 16.52919 | 4995 ft | 238 kts | 255° |
| 2026-05-05 19:20 | 48.41801 | 16.50632 | 4996 ft | 236 kts | 236° |
| 2026-05-05 19:20 | 48.40743 | 16.48817 | 4982 ft | 220 kts | 218° |
| 2026-05-05 19:20 | 48.39502 | 16.47720 | 4987 ft | 198 kts | 202° |
| 2026-05-05 19:21 | 48.38221 | 16.47235 | 4984 ft | 183 kts | 187° |
| 2026-05-05 19:21 | 48.36927 | 16.47264 | 5000 ft | 190 kts | 173° |
| 2026-05-05 19:21 | 48.35636 | 16.47749 | 4995 ft | 192 kts | 166° |
| 2026-05-05 19:21 | 48.34348 | 16.48301 | 4982 ft | 193 kts | 167° |
| 2026-05-05 19:22 | 48.33070 | 16.48848 | 4825 ft | 193 kts | 167° |
| 2026-05-05 19:22 | 48.31786 | 16.49397 | 4591 ft | 191 kts | 167° |
| 2026-05-05 19:22 | 48.30509 | 16.49942 | 4344 ft | 189 kts | 167° |
| 2026-05-05 19:22 | 48.29247 | 16.50480 | 4098 ft | 188 kts | 168° |
| 2026-05-05 19:23 | 48.27989 | 16.51016 | 3847 ft | 188 kts | 168° |
| 2026-05-05 19:23 | 48.26736 | 16.51549 | 3591 ft | 187 kts | 168° |
| 2026-05-05 19:23 | 48.25487 | 16.52081 | 3365 ft | 186 kts | 168° |
| 2026-05-05 19:23 | 48.24251 | 16.52608 | 3118 ft | 183 kts | 168° |
| 2026-05-05 19:24 | 48.23033 | 16.53126 | 2876 ft | 181 kts | 168° |
| 2026-05-05 19:24 | 48.21833 | 16.53636 | 2660 ft | 177 kts | 167° |
| 2026-05-05 19:24 | 48.20677 | 16.54128 | 2418 ft | 168 kts | 167° |
| 2026-05-05 19:24 | 48.19594 | 16.54588 | 2186 ft | 155 kts | 166° |
| 2026-05-05 19:25 | 48.18613 | 16.55005 | 1996 ft | 137 kts | 166° |
| 2026-05-05 19:25 | 48.17746 | 16.55373 | 1825 ft | 122 kts | 166° |
| 2026-05-05 19:25 | 48.16955 | 16.55708 | 1674 ft | 115 kts | 165° |
| 2026-05-05 19:25 | 48.16200 | 16.56027 | 1520 ft | 114 kts | 164° |
| 2026-05-05 19:26 | 48.15436 | 16.56351 | 1360 ft | 114 kts | 165° |
| 2026-05-05 19:26 | 48.14685 | 16.56669 | 1204 ft | 112 kts | 165° |
| 2026-05-05 19:26 | 48.13924 | 16.56991 | 1054 ft | 115 kts | 165° |
| 2026-05-05 19:26 | 48.13164 | 16.57321 | 886 ft | 113 kts | 165° |
| 2026-05-05 19:27 | 48.12407 | 16.57642 | 729 ft | 113 kts | 166° |
| 2026-05-05 19:27 | 48.11648 | 16.57959 | 624 ft | 106 kts | 165° |
| 2026-05-05 19:27 | 48.11043 | 16.58213 | 618 ft | 55 kts | 165° |
| 2026-05-05 19:27 | 48.10795 | 16.58289 | 610 ft | 29 kts | 181° |
| 2026-05-05 19:28 | 48.10623 | 16.58250 | 610 ft | 21 kts | 193° |
| 2026-05-05 19:28 | 48.10555 | 16.58168 | 614 ft | 12 kts | 273° |
| 2026-05-05 19:28 | 48.10620 | 16.58112 | 612 ft | 11 kts | 345° |
| 2026-05-05 19:28 | 48.10694 | 16.58083 | 618 ft | 11 kts | 345° |
| 2026-05-05 19:29 | 48.10793 | 16.58043 | 619 ft | 23 kts | 344° |
| 2026-05-05 19:29 | 48.10947 | 16.57976 | 612 ft | 23 kts | 344° |
| 2026-05-05 19:29 | 48.11094 | 16.57900 | 614 ft | 19 kts | 316° |
| 2026-05-05 19:29 | 48.11149 | 16.57750 | 617 ft | 15 kts | 297° |
| 2026-05-05 19:30 | 48.11195 | 16.57607 | 621 ft | 16 kts | 294° |
| 2026-05-05 19:30 | 48.11259 | 16.57401 | 615 ft | 21 kts | 296° |
| 2026-05-05 19:30 | 48.11340 | 16.57352 | 610 ft | 18 kts | 25° |
| 2026-05-05 19:30 | 48.11431 | 16.57366 | 621 ft | 9 kts | 300° |
| 2026-05-05 19:31 | 48.11426 | 16.57277 | 620 ft | 6 kts | 205° |
| 2026-05-05 19:31 | 48.11395 | 16.57255 | 619 ft | 7 kts | 204° |
| 2026-05-05 19:31 | 48.11388 | 16.57250 | 615 ft | 0 kts | 205° |